Terminal Aerodrome Forecast
Issued by NWS Blacksburg, VA

Home | Current Version | Previous Version | Text Only | Print | Product List | Glossary On
Versions: 1 2 3 4 5 6 7 8 9 10 11 12 13 14 15
000
FTUS41 KRNK 301133
TAFROA
TAF
KROA 301133Z 3012/3112 03004KT P6SM FEW009 OVC110
     FM301700 08006KT P6SM VCSH BKN040
     FM302000 09005KT P6SM VCTS BKN045CB
     FM310100 11004KT P6SM SCT050 BKN250
     FM310900 00000KT 4SM BR BKN250=

USA.gov is the U.S. government's official web portal to all federal, state and local government web resources and services.